Tranquillity, CA

4:07 AM PST on January 28, 2015 (GMT -0800)
GFWS112 | Change Station
CLOSE
Current Station
Personal Weather Station
Location: Kerman, CA
Elevation: 197 ft
Nearby Weather Stations
Active Advisory: Dense Fog Advisory

Elev 197 ft 36.65 °N, 120.09 °W | Updated 5 minutes ago

Partly Cloudy
Partly Cloudy
44.6 °F
Feels Like 45 °F
N
0.0
Wind Variable Wind from WNW
Gusts 0.0 mph

Today
High -- | Low -- °F
--% Chance of Precip.
Yesterday
High -- | Low -- °F
Precip. -- in
7:05 AM 5:22 PM
Waxing Gibbous, 64% visible
Pressure 30.26 in
Visibility 0.2 miles
Clouds
Windchill 45 °F
Dew Point 44 °F
Humidity 99%
Rainfall 0.00 in
Snow Depth Not available.
UV Not available.
Pollen 1.80 out of 12
Air Quality Not available.
Flu Activity Not available.
METAR KMAE 281153Z AUTO 06003KT M1/4SM FG VV002 08/07 A3026 RMK AO2 SLP246 70002 T00830067 10117 20061 51009 $

More Conditions Fewer Conditions

Pressure 30.26 in
Visibility 0.2 miles
Clouds
Windchill 45 °F
Dew Point 44 °F
Humidity 99%
Rainfall 0.00 in
Snow Depth Not available.
UV Not available.
Pollen 1.80 out of 12
Air Quality Not available.
Flu Activity Not available.
METAR KMAE 281153Z AUTO 06003KT M1/4SM FG VV002 08/07 A3026 RMK AO2 SLP246 70002 T00830067 10117 20061 51009 $

More Conditions Fewer Conditions

10-Day Weather Forecast

Almanac

Astronomy

Jan. 28, 2015 Rise Set
Actual Time
Civil Twilight
Nautical Twilight
Astronomical Twilight
Moon
Length of Visible Light
Length of Day
Tomorrow will be .
, % of the Moon is Illuminated

Today's Extremes

State Highs State Lows

Community

WunderPhotos

Upload Photos

1,791,127 photos uploaded!

WunderBlogs® & News

Nearby

Air Quality

  Air Quality AQ Index Pollutant
Not available.

Snow Depth

Station Depth Elevation

Earthquake Activity

City Distance Mag. Time & Date
Minimum magnitude displayed is 2.5.

Coastal Water Temperatures

Place Temperature

Nearby Weather Stations